sensor_id;sensor_type;location;lat;lon;timestamp;pressure;altitude;pressure_sealevel;temperature;humidity
73870;BME280;64924;42.140;24.762;2023-06-14T00:00:10;99256.31;;;22.65;58.79
73870;BME280;64924;42.140;24.762;2023-06-14T00:02:38;99252.78;;;22.50;59.54
73870;BME280;64924;42.140;24.762;2023-06-14T00:05:05;99258.06;;;22.51;59.49
73870;BME280;64924;42.140;24.762;2023-06-14T00:07:36;99225.13;;;22.45;58.94
73870;BME280;64924;42.140;24.762;2023-06-14T00:10:03;99257.38;;;22.69;58.74
73870;BME280;64924;42.140;24.762;2023-06-14T00:12:30;99242.56;;;22.45;59.51
73870;BME280;64924;42.140;24.762;2023-06-14T00:14:55;99253.66;;;22.40;59.97
73870;BME280;64924;42.140;24.762;2023-06-14T00:17:21;99254.19;;;22.47;59.76
73870;BME280;64924;42.140;24.762;2023-06-14T00:19:46;99211.44;;;22.14;59.78
73870;BME280;64924;42.140;24.762;2023-06-14T00:22:12;99237.09;;;22.30;60.25
73870;BME280;64924;42.140;24.762;2023-06-14T00:24:37;99221.09;;;22.17;60.14
73870;BME280;64924;42.140;24.762;2023-06-14T00:27:03;99247.84;;;22.42;60.18
73870;BME280;64924;42.140;24.762;2023-06-14T00:29:29;99248.91;;;22.51;59.86
73870;BME280;64924;42.140;24.762;2023-06-14T00:31:54;99246.22;;;22.30;60.51
73870;BME280;64924;42.140;24.762;2023-06-14T00:34:20;99234.41;;;22.10;60.96
73870;BME280;64924;42.140;24.762;2023-06-14T00:36:45;99215.88;;;22.10;60.86
73870;BME280;64924;42.140;24.762;2023-06-14T00:39:11;99257.56;;;22.29;60.43
73870;BME280;64924;42.140;24.762;2023-06-14T00:41:37;99242.13;;;22.18;61.06
73870;BME280;64924;42.140;24.762;2023-06-14T00:44:02;99235.16;;;22.30;60.94
73870;BME280;64924;42.140;24.762;2023-06-14T00:46:28;99243.25;;;22.17;61.46
73870;BME280;64924;42.140;24.762;2023-06-14T00:48:55;99235.25;;;22.10;61.76
73870;BME280;64924;42.140;24.762;2023-06-14T00:51:21;99195.19;;;21.77;62.20
73870;BME280;64924;42.140;24.762;2023-06-14T00:53:47;99232.22;;;22.01;62.50
73870;BME280;64924;42.140;24.762;2023-06-14T00:56:14;99243.31;;;21.81;63.31
73870;BME280;64924;42.140;24.762;2023-06-14T00:58:40;99234.47;;;21.69;63.84
73870;BME280;64924;42.140;24.762;2023-06-14T01:01:06;99228.69;;;21.55;64.22
73870;BME280;64924;42.140;24.762;2023-06-14T01:03:32;99228.94;;;21.54;64.38
73870;BME280;64924;42.140;24.762;2023-06-14T01:08:51;99232.53;;;21.64;64.49
73870;BME280;64924;42.140;24.762;2023-06-14T01:11:44;99233.38;;;21.75;64.00
73870;BME280;64924;42.140;24.762;2023-06-14T01:14:14;99230.09;;;21.53;64.64
73870;BME280;64924;42.140;24.762;2023-06-14T01:16:39;99217.94;;;21.39;64.58
73870;BME280;64924;42.140;24.762;2023-06-14T01:19:06;99227.88;;;21.45;64.70
73870;BME280;64924;42.140;24.762;2023-06-14T01:21:34;99191.66;;;21.06;65.25
73870;BME280;64924;42.140;24.762;2023-06-14T01:24:07;99200.78;;;21.16;65.24
73870;BME280;64924;42.140;24.762;2023-06-14T01:26:35;99243.91;;;21.27;65.44
73870;BME280;64924;42.140;24.762;2023-06-14T01:29:03;99192.50;;;21.06;65.36
73870;BME280;64924;42.140;24.762;2023-06-14T01:31:29;99233.09;;;21.11;66.10
73870;BME280;64924;42.140;24.762;2023-06-14T01:33:55;99217.59;;;21.20;65.64
73870;BME280;64924;42.140;24.762;2023-06-14T01:36:22;99217.94;;;21.39;65.09
73870;BME280;64924;42.140;24.762;2023-06-14T01:38:50;99218.75;;;21.34;65.11
73870;BME280;64924;42.140;24.762;2023-06-14T01:41:17;99215.44;;;21.27;65.21
73870;BME280;64924;42.140;24.762;2023-06-14T01:43:44;99217.91;;;21.08;66.09
73870;BME280;64924;42.140;24.762;2023-06-14T01:46:11;99229.50;;;21.00;66.07
73870;BME280;64924;42.140;24.762;2023-06-14T01:48:37;99218.72;;;21.03;66.14
73870;BME280;64924;42.140;24.762;2023-06-14T01:51:03;99235.56;;;21.17;65.63
73870;BME280;64924;42.140;24.762;2023-06-14T01:53:28;99227.59;;;21.41;64.86
73870;BME280;64924;42.140;24.762;2023-06-14T01:55:54;99216.28;;;21.43;64.55
73870;BME280;64924;42.140;24.762;2023-06-14T01:58:20;99228.13;;;21.58;64.13
73870;BME280;64924;42.140;24.762;2023-06-14T02:00:46;99215.72;;;21.51;64.12
73870;BME280;64924;42.140;24.762;2023-06-14T02:03:12;99216.22;;;21.58;63.91
73870;BME280;64924;42.140;24.762;2023-06-14T02:05:38;99222.03;;;21.56;64.07
73870;BME280;64924;42.140;24.762;2023-06-14T02:08:05;99180.91;;;21.34;64.00
73870;BME280;64924;42.140;24.762;2023-06-14T02:10:31;99224.50;;;21.73;63.57
73870;BME280;64924;42.140;24.762;2023-06-14T02:12:56;99214.56;;;21.72;63.54
73870;BME280;64924;42.140;24.762;2023-06-14T02:15:22;99211.81;;;21.67;63.17
73870;BME280;64924;42.140;24.762;2023-06-14T02:17:48;99230.59;;;21.75;63.42
73870;BME280;64924;42.140;24.762;2023-06-14T02:20:15;99235.56;;;21.83;63.43
73870;BME280;64924;42.140;24.762;2023-06-14T02:22:40;99211.25;;;21.75;63.22
73870;BME280;64924;42.140;24.762;2023-06-14T02:25:07;99222.59;;;21.68;62.95
73870;BME280;64924;42.140;24.762;2023-06-14T02:27:33;99230.34;;;21.56;62.57
73870;BME280;64924;42.140;24.762;2023-06-14T02:29:59;99224.81;;;21.56;62.92
73870;BME280;64924;42.140;24.762;2023-06-14T02:32:25;99231.72;;;21.64;62.86
73870;BME280;64924;42.140;24.762;2023-06-14T02:34:53;99225.91;;;21.65;62.70
73870;BME280;64924;42.140;24.762;2023-06-14T02:37:19;99234.75;;;21.78;62.20
73870;BME280;64924;42.140;24.762;2023-06-14T02:39:44;99230.06;;;21.68;62.79
73870;BME280;64924;42.140;24.762;2023-06-14T02:42:10;99236.13;;;21.80;62.29
73870;BME280;64924;42.140;24.762;2023-06-14T02:44:36;99240.00;;;21.84;62.33
73870;BME280;64924;42.140;24.762;2023-06-14T02:47:02;99220.94;;;21.67;62.25
73870;BME280;64924;42.140;24.762;2023-06-14T02:49:27;99235.31;;;21.59;62.86
73870;BME280;64924;42.140;24.762;2023-06-14T02:51:53;99209.34;;;21.40;63.01
73870;BME280;64924;42.140;24.762;2023-06-14T02:54:18;99232.31;;;21.51;63.22
73870;BME280;64924;42.140;24.762;2023-06-14T02:56:44;99243.63;;;21.34;63.75
73870;BME280;64924;42.140;24.762;2023-06-14T02:59:10;99247.22;;;21.45;63.37
73870;BME280;64924;42.140;24.762;2023-06-14T03:01:35;99246.69;;;21.53;62.70
73870;BME280;64924;42.140;24.762;2023-06-14T03:04:07;99218.47;;;21.46;62.23
73870;BME280;64924;42.140;24.762;2023-06-14T03:06:33;99251.94;;;21.49;62.74
73870;BME280;64924;42.140;24.762;2023-06-14T03:08:59;99224.81;;;21.21;62.53
73870;BME280;64924;42.140;24.762;2023-06-14T03:11:28;99252.47;;;21.41;62.66
73870;BME280;64924;42.140;24.762;2023-06-14T03:13:54;99254.97;;;21.48;62.64
73870;BME280;64924;42.140;24.762;2023-06-14T03:16:21;99242.81;;;21.33;62.49
73870;BME280;64924;42.140;24.762;2023-06-14T03:18:50;99252.75;;;21.50;62.12
73870;BME280;64924;42.140;24.762;2023-06-14T03:21:15;99256.03;;;21.62;61.86
73870;BME280;64924;42.140;24.762;2023-06-14T03:23:42;99254.94;;;21.68;61.32
73870;BME280;64924;42.140;24.762;2023-06-14T03:26:07;99257.69;;;21.68;61.50
73870;BME280;64924;42.140;24.762;2023-06-14T03:28:33;99270.97;;;21.66;61.46
73870;BME280;64924;42.140;24.762;2023-06-14T03:30:59;99258.53;;;21.68;61.39
73870;BME280;64924;42.140;24.762;2023-06-14T03:33:25;99226.72;;;21.66;60.84
73870;BME280;64924;42.140;24.762;2023-06-14T03:35:51;99278.16;;;21.87;60.69
73870;BME280;64924;42.140;24.762;2023-06-14T03:38:17;99266.53;;;21.90;60.16
73870;BME280;64924;42.140;24.762;2023-06-14T03:40:42;99265.13;;;22.03;60.00
73870;BME280;64924;42.140;24.762;2023-06-14T03:43:08;99250.22;;;21.79;60.23
73870;BME280;64924;42.140;24.762;2023-06-14T03:45:33;99281.47;;;21.84;60.32
73870;BME280;64924;42.140;24.762;2023-06-14T03:47:59;99297.25;;;21.68;61.14
73870;BME280;64924;42.140;24.762;2023-06-14T03:50:26;99289.78;;;21.54;61.07
73870;BME280;64924;42.140;24.762;2023-06-14T03:52:52;99296.13;;;21.75;60.80
73870;BME280;64924;42.140;24.762;2023-06-14T03:55:18;99300.28;;;21.82;60.73
73870;BME280;64924;42.140;24.762;2023-06-14T03:57:44;99265.16;;;21.67;60.46
73870;BME280;64924;42.140;24.762;2023-06-14T04:00:10;99279.50;;;21.95;59.97
73870;BME280;64924;42.140;24.762;2023-06-14T04:02:37;99281.72;;;22.03;59.98
73870;BME280;64924;42.140;24.762;2023-06-14T04:05:03;99299.44;;;22.02;60.05
73870;BME280;64924;42.140;24.762;2023-06-14T04:07:28;99265.97;;;21.88;59.81
73870;BME280;64924;42.140;24.762;2023-06-14T04:09:54;99309.09;;;22.25;59.47
73870;BME280;64924;42.140;24.762;2023-06-14T04:12:19;99295.84;;;22.12;59.19
73870;BME280;64924;42.140;24.762;2023-06-14T04:14:45;99290.00;;;21.93;59.27
73870;BME280;64924;42.140;24.762;2023-06-14T04:17:11;99303.88;;;22.08;58.81
73870;BME280;64924;42.140;24.762;2023-06-14T04:19:36;99282.03;;;21.56;59.45
73870;BME280;64924;42.140;24.762;2023-06-14T04:22:02;99310.25;;;21.68;59.42
73870;BME280;64924;42.140;24.762;2023-06-14T04:24:28;99310.53;;;21.87;59.13
73870;BME280;64924;42.140;24.762;2023-06-14T04:27:01;99310.75;;;22.00;58.68
73870;BME280;64924;42.140;24.762;2023-06-14T04:29:26;99256.84;;;22.03;58.28
73870;BME280;64924;42.140;24.762;2023-06-14T04:31:55;99299.63;;;22.36;57.69
73870;BME280;64924;42.140;24.762;2023-06-14T04:34:27;99318.47;;;22.34;57.86
73870;BME280;64924;42.140;24.762;2023-06-14T04:36:58;99320.38;;;22.44;57.55
73870;BME280;64924;42.140;24.762;2023-06-14T04:39:24;99310.34;;;22.63;57.03
73870;BME280;64924;42.140;24.762;2023-06-14T04:41:51;99299.47;;;22.82;56.45
73870;BME280;64924;42.140;24.762;2023-06-14T04:44:22;99313.16;;;23.12;55.92
73870;BME280;64924;42.140;24.762;2023-06-14T04:46:58;99309.75;;;23.25;54.91
73870;BME280;64924;42.140;24.762;2023-06-14T04:49:24;99309.19;;;23.23;54.98
73870;BME280;64924;42.140;24.762;2023-06-14T04:51:51;99312.59;;;23.54;54.69
73870;BME280;64924;42.140;24.762;2023-06-14T04:54:23;99324.69;;;23.69;54.48
73870;BME280;64924;42.140;24.762;2023-06-14T04:56:50;99317.78;;;23.66;54.45
73870;BME280;64924;42.140;24.762;2023-06-14T04:59:16;99325.66;;;23.83;54.36
73870;BME280;64924;42.140;24.762;2023-06-14T05:01:42;99321.69;;;23.94;54.11
73870;BME280;64924;42.140;24.762;2023-06-14T05:04:13;99328.34;;;23.93;54.30
73870;BME280;64924;42.140;24.762;2023-06-14T05:06:38;99316.25;;;24.13;53.96
73870;BME280;64924;42.140;24.762;2023-06-14T05:09:04;99332.75;;;23.99;54.53
73870;BME280;64924;42.140;24.762;2023-06-14T05:11:30;99326.28;;;24.09;54.23
73870;BME280;64924;42.140;24.762;2023-06-14T05:13:55;99327.22;;;24.28;53.78
73870;BME280;64924;42.140;24.762;2023-06-14T05:16:23;99334.78;;;24.46;53.72
73870;BME280;64924;42.140;24.762;2023-06-14T05:18:51;99281.66;;;24.29;53.16
73870;BME280;64924;42.140;24.762;2023-06-14T05:21:17;99294.19;;;24.50;52.70
73870;BME280;64924;42.140;24.762;2023-06-14T05:23:44;99334.66;;;24.56;52.96
73870;BME280;64924;42.140;24.762;2023-06-14T05:26:10;99336.84;;;24.83;52.29
73870;BME280;64924;42.140;24.762;2023-06-14T05:28:36;99340.59;;;24.92;51.99
73870;BME280;64924;42.140;24.762;2023-06-14T05:31:02;99321.44;;;24.91;52.04
73870;BME280;64924;42.140;24.762;2023-06-14T05:33:27;99319.34;;;24.83;52.12
73870;BME280;64924;42.140;24.762;2023-06-14T05:35:53;99357.22;;;25.21;51.57
73870;BME280;64924;42.140;24.762;2023-06-14T05:38:19;99353.66;;;25.35;51.42
73870;BME280;64924;42.140;24.762;2023-06-14T05:40:44;99352.25;;;25.56;50.87
73870;BME280;64924;42.140;24.762;2023-06-14T05:43:10;99354.94;;;25.61;50.44
73870;BME280;64924;42.140;24.762;2023-06-14T05:45:35;99357.88;;;25.88;50.14
73870;BME280;64924;42.140;24.762;2023-06-14T05:48:01;99360.19;;;26.14;49.32
73870;BME280;64924;42.140;24.762;2023-06-14T05:50:26;99361.06;;;26.28;48.82
73870;BME280;64924;42.140;24.762;2023-06-14T05:52:53;99366.47;;;26.38;48.45
73870;BME280;64924;42.140;24.762;2023-06-14T05:55:19;99357.16;;;26.29;48.67
73870;BME280;64924;42.140;24.762;2023-06-14T05:57:45;99371.16;;;26.24;48.59
73870;BME280;64924;42.140;24.762;2023-06-14T06:00:11;99369.22;;;26.24;48.85
73870;BME280;64924;42.140;24.762;2023-06-14T06:02:40;99328.72;;;26.32;47.59
73870;BME280;64924;42.140;24.762;2023-06-14T06:05:06;99368.06;;;26.72;47.36
73870;BME280;64924;42.140;24.762;2023-06-14T06:07:32;99364.13;;;26.73;47.24
73870;BME280;64924;42.140;24.762;2023-06-14T06:09:57;99342.56;;;26.64;47.21
73870;BME280;64924;42.140;24.762;2023-06-14T06:12:23;99357.63;;;27.05;46.76
73870;BME280;64924;42.140;24.762;2023-06-14T06:14:48;99350.78;;;27.60;45.68
73870;BME280;64924;42.140;24.762;2023-06-14T06:17:14;99350.34;;;28.12;44.31
73870;BME280;64924;42.140;24.762;2023-06-14T06:19:39;99362.97;;;28.93;42.34
73870;BME280;64924;42.140;24.762;2023-06-14T06:22:05;99360.59;;;29.44;41.07
73870;BME280;64924;42.140;24.762;2023-06-14T06:24:31;99348.91;;;29.93;40.36
73870;BME280;64924;42.140;24.762;2023-06-14T06:26:57;99363.56;;;30.72;38.54
73870;BME280;64924;42.140;24.762;2023-06-14T06:29:23;99356.84;;;31.52;37.39
73870;BME280;64924;42.140;24.762;2023-06-14T06:31:48;99346.38;;;32.61;35.74
73870;BME280;64924;42.140;24.762;2023-06-14T06:34:13;99358.53;;;34.62;32.37
73870;BME280;64924;42.140;24.762;2023-06-14T06:36:39;99320.06;;;36.13;29.17
73870;BME280;64924;42.140;24.762;2023-06-14T06:39:04;99348.66;;;36.08;28.72
73870;BME280;64924;42.140;24.762;2023-06-14T06:41:38;99344.50;;;36.44;28.65
73870;BME280;64924;42.140;24.762;2023-06-14T06:44:05;99355.16;;;36.50;28.60
73870;BME280;64924;42.140;24.762;2023-06-14T06:46:32;99354.34;;;35.89;28.62
73870;BME280;64924;42.140;24.762;2023-06-14T06:48:57;99352.25;;;35.15;29.59
73870;BME280;64924;42.140;24.762;2023-06-14T06:51:23;99364.56;;;35.07;29.67
73870;BME280;64924;42.140;24.762;2023-06-14T06:53:53;99345.41;;;34.53;30.43
73870;BME280;64924;42.140;24.762;2023-06-14T06:56:19;99366.38;;;34.09;31.14
73870;BME280;64924;42.140;24.762;2023-06-14T06:58:45;99327.56;;;32.28;33.56
73870;BME280;64924;42.140;24.762;2023-06-14T07:01:10;99372.75;;;31.69;35.33
73870;BME280;64924;42.140;24.762;2023-06-14T07:03:37;99373.75;;;31.44;35.73
73870;BME280;64924;42.140;24.762;2023-06-14T07:06:02;99368.75;;;31.49;36.10
73870;BME280;64924;42.140;24.762;2023-06-14T07:08:28;99365.59;;;31.51;35.81
73870;BME280;64924;42.140;24.762;2023-06-14T07:10:53;99370.84;;;31.32;36.32
73870;BME280;64924;42.140;24.762;2023-06-14T07:13:19;99372.16;;;31.05;36.98
73870;BME280;64924;42.140;24.762;2023-06-14T07:15:44;99323.34;;;30.50;37.73
73870;BME280;64924;42.140;24.762;2023-06-14T07:18:10;99366.09;;;30.94;37.53
73870;BME280;64924;42.140;24.762;2023-06-14T07:20:35;99370.66;;;31.37;36.66
73870;BME280;64924;42.140;24.762;2023-06-14T07:23:03;99365.75;;;30.96;37.05
73870;BME280;64924;42.140;24.762;2023-06-14T07:25:29;99372.78;;;29.91;38.96
73870;BME280;64924;42.140;24.762;2023-06-14T07:27:54;99331.53;;;29.05;40.50
73870;BME280;64924;42.140;24.762;2023-06-14T07:30:20;99366.94;;;29.10;40.76
73870;BME280;64924;42.140;24.762;2023-06-14T07:32:46;99358.81;;;29.56;39.82
73870;BME280;64924;42.140;24.762;2023-06-14T07:35:11;99372.00;;;29.99;39.10
73870;BME280;64924;42.140;24.762;2023-06-14T07:37:37;99356.66;;;29.45;39.95
73870;BME280;64924;42.140;24.762;2023-06-14T07:40:03;99365.16;;;29.22;41.05
73870;BME280;64924;42.140;24.762;2023-06-14T07:42:33;99357.19;;;28.99;41.43
73870;BME280;64924;42.140;24.762;2023-06-14T07:44:59;99361.31;;;29.01;41.29
73870;BME280;64924;42.140;24.762;2023-06-14T07:47:25;99325.75;;;28.84;41.00
73870;BME280;64924;42.140;24.762;2023-06-14T07:49:51;99364.66;;;29.38;39.99
73870;BME280;64924;42.140;24.762;2023-06-14T07:52:16;99380.06;;;29.66;39.32
73870;BME280;64924;42.140;24.762;2023-06-14T07:54:42;99363.97;;;29.06;40.72
73870;BME280;64924;42.140;24.762;2023-06-14T07:57:08;99341.63;;;29.32;39.52
73870;BME280;64924;42.140;24.762;2023-06-14T07:59:34;99360.44;;;29.75;39.34
73870;BME280;64924;42.140;24.762;2023-06-14T08:01:59;99359.63;;;29.57;39.26
73870;BME280;64924;42.140;24.762;2023-06-14T08:04:25;99351.22;;;29.48;39.25
73870;BME280;64924;42.140;24.762;2023-06-14T08:06:50;99369.50;;;29.80;39.03
73870;BME280;64924;42.140;24.762;2023-06-14T08:09:16;99359.09;;;29.98;38.26
73870;BME280;64924;42.140;24.762;2023-06-14T08:11:41;99358.25;;;30.32;37.24
73870;BME280;64924;42.140;24.762;2023-06-14T08:14:07;99367.19;;;29.91;37.47
73870;BME280;64924;42.140;24.762;2023-06-14T08:16:33;99365.41;;;29.60;37.78
73870;BME280;64924;42.140;24.762;2023-06-14T08:18:58;99385.00;;;29.69;37.89
73870;BME280;64924;42.140;24.762;2023-06-14T08:21:24;99339.47;;;30.24;36.59
73870;BME280;64924;42.140;24.762;2023-06-14T08:23:54;99340.66;;;30.70;35.84
73870;BME280;64924;42.140;24.762;2023-06-14T08:26:20;99338.75;;;31.12;34.88
73870;BME280;64924;42.140;24.762;2023-06-14T08:28:46;99367.41;;;31.76;34.39
73870;BME280;64924;42.140;24.762;2023-06-14T08:31:11;99383.59;;;32.45;33.18
73870;BME280;64924;42.140;24.762;2023-06-14T08:33:38;99339.84;;;32.23;33.09
73870;BME280;64924;42.140;24.762;2023-06-14T08:36:04;99386.28;;;32.99;32.25
73870;BME280;64924;42.140;24.762;2023-06-14T08:38:30;99386.47;;;33.55;31.63
73870;BME280;64924;42.140;24.762;2023-06-14T08:41:00;99380.78;;;33.79;31.17
73870;BME280;64924;42.140;24.762;2023-06-14T08:43:26;99385.81;;;33.86;31.29
73870;BME280;64924;42.140;24.762;2023-06-14T08:45:58;99356.81;;;33.85;30.66
73870;BME280;64924;42.140;24.762;2023-06-14T08:48:26;99387.94;;;33.37;31.04
73870;BME280;64924;42.140;24.762;2023-06-14T08:50:53;99397.19;;;33.01;31.50
73870;BME280;64924;42.140;24.762;2023-06-14T08:53:28;99398.56;;;32.37;32.47
73870;BME280;64924;42.140;24.762;2023-06-14T08:55:54;99393.94;;;31.58;33.45
73870;BME280;64924;42.140;24.762;2023-06-14T08:58:21;99387.88;;;31.27;34.27
73870;BME280;64924;42.140;24.762;2023-06-14T09:00:49;99380.25;;;31.36;34.02
73870;BME280;64924;42.140;24.762;2023-06-14T09:03:17;99380.53;;;31.64;33.97
73870;BME280;64924;42.140;24.762;2023-06-14T09:05:46;99372.00;;;32.14;32.99
73870;BME280;64924;42.140;24.762;2023-06-14T09:08:12;99381.38;;;32.18;32.94
73870;BME280;64924;42.140;24.762;2023-06-14T09:10:39;99378.75;;;32.34;33.30
73870;BME280;64924;42.140;24.762;2023-06-14T09:13:06;99373.25;;;32.04;32.79
73870;BME280;64924;42.140;24.762;2023-06-14T09:15:32;99368.59;;;31.67;33.94
73870;BME280;64924;42.140;24.762;2023-06-14T09:17:57;99375.28;;;31.83;33.63
73870;BME280;64924;42.140;24.762;2023-06-14T09:20:24;99368.16;;;31.85;33.38
73870;BME280;64924;42.140;24.762;2023-06-14T09:22:50;99372.78;;;32.23;32.97
73870;BME280;64924;42.140;24.762;2023-06-14T09:25:16;99366.59;;;32.30;32.63
73870;BME280;64924;42.140;24.762;2023-06-14T09:27:43;99372.34;;;32.45;32.25
73870;BME280;64924;42.140;24.762;2023-06-14T09:30:09;99364.59;;;32.09;32.73
73870;BME280;64924;42.140;24.762;2023-06-14T09:32:38;99360.47;;;31.53;33.87
73870;BME280;64924;42.140;24.762;2023-06-14T09:35:08;99352.50;;;31.13;34.88
73870;BME280;64924;42.140;24.762;2023-06-14T09:37:35;99361.78;;;30.97;34.65
73870;BME280;64924;42.140;24.762;2023-06-14T09:40:01;99366.19;;;31.36;34.36
73870;BME280;64924;42.140;24.762;2023-06-14T09:42:26;99361.25;;;31.33;34.53
73870;BME280;64924;42.140;24.762;2023-06-14T09:44:55;99343.09;;;31.30;34.20
73870;BME280;64924;42.140;24.762;2023-06-14T09:47:21;99338.09;;;31.56;33.51
73870;BME280;64924;42.140;24.762;2023-06-14T09:49:48;99355.88;;;31.69;33.93
73870;BME280;64924;42.140;24.762;2023-06-14T09:52:16;99345.81;;;32.01;33.97
73870;BME280;64924;42.140;24.762;2023-06-14T09:54:42;99355.53;;;31.71;34.02
73870;BME280;64924;42.140;24.762;2023-06-14T09:57:13;99348.75;;;31.93;33.51
73870;BME280;64924;42.140;24.762;2023-06-14T09:59:46;99352.66;;;32.12;33.19
73870;BME280;64924;42.140;24.762;2023-06-14T10:02:26;99304.47;;;31.89;33.10
73870;BME280;64924;42.140;24.762;2023-06-14T10:05:11;99303.03;;;31.63;33.67
73870;BME280;64924;42.140;24.762;2023-06-14T10:07:58;99351.34;;;31.56;34.19
73870;BME280;64924;42.140;24.762;2023-06-14T10:10:24;99311.47;;;31.21;34.50
73870;BME280;64924;42.140;24.762;2023-06-14T10:12:50;99313.44;;;31.20;33.81
73870;BME280;64924;42.140;24.762;2023-06-14T10:15:27;99344.31;;;31.20;35.79
73870;BME280;64924;42.140;24.762;2023-06-14T10:18:01;99301.19;;;30.75;37.16
73870;BME280;64924;42.140;24.762;2023-06-14T10:20:43;99328.19;;;31.17;37.10
73870;BME280;64924;42.140;24.762;2023-06-14T10:23:17;99341.66;;;31.24;37.02
73870;BME280;64924;42.140;24.762;2023-06-14T10:25:44;99339.75;;;31.37;36.64
73870;BME280;64924;42.140;24.762;2023-06-14T10:28:20;99324.72;;;31.95;35.72
73870;BME280;64924;42.140;24.762;2023-06-14T10:31:02;99333.66;;;32.42;34.59
73870;BME280;64924;42.140;24.762;2023-06-14T10:33:50;99315.97;;;32.42;33.81
73870;BME280;64924;42.140;24.762;2023-06-14T10:39:15;99299.44;;;31.41;35.61
73870;BME280;64924;42.140;24.762;2023-06-14T10:41:41;99337.25;;;31.44;35.41
73870;BME280;64924;42.140;24.762;2023-06-14T10:46:39;99328.75;;;31.73;34.91
73870;BME280;64924;42.140;24.762;2023-06-14T10:49:04;99328.75;;;31.52;35.02
73870;BME280;64924;42.140;24.762;2023-06-14T10:51:38;99332.25;;;31.70;34.75
73870;BME280;64924;42.140;24.762;2023-06-14T10:54:12;99318.88;;;31.88;34.12
73870;BME280;64924;42.140;24.762;2023-06-14T10:56:49;99315.91;;;32.17;34.44
73870;BME280;64924;42.140;24.762;2023-06-14T10:59:17;99320.88;;;32.00;34.11
73870;BME280;64924;42.140;24.762;2023-06-14T11:04:52;99325.63;;;32.20;33.26
73870;BME280;64924;42.140;24.762;2023-06-14T11:10:38;99311.06;;;31.52;33.17
73870;BME280;64924;42.140;24.762;2023-06-14T11:13:03;99312.84;;;31.36;33.23
73870;BME280;64924;42.140;24.762;2023-06-14T11:15:30;99320.25;;;31.40;33.16
73870;BME280;64924;42.140;24.762;2023-06-14T11:17:57;99298.19;;;31.51;33.10
73870;BME280;64924;42.140;24.762;2023-06-14T11:20:29;99310.94;;;31.48;34.34
73870;BME280;64924;42.140;24.762;2023-06-14T11:22:55;99304.31;;;31.03;35.68
73870;BME280;64924;42.140;24.762;2023-06-14T11:25:20;99307.84;;;30.91;36.00
73870;BME280;64924;42.140;24.762;2023-06-14T11:27:48;99291.28;;;30.77;36.12
73870;BME280;64924;42.140;24.762;2023-06-14T11:30:14;99279.97;;;30.56;35.99
73870;BME280;64924;42.140;24.762;2023-06-14T11:32:40;99292.97;;;30.70;36.52
73870;BME280;64924;42.140;24.762;2023-06-14T11:35:06;99293.63;;;30.96;35.75
73870;BME280;64924;42.140;24.762;2023-06-14T11:37:32;99285.19;;;30.96;35.64
73870;BME280;64924;42.140;24.762;2023-06-14T11:40:03;99295.09;;;30.73;36.00
73870;BME280;64924;42.140;24.762;2023-06-14T11:42:34;99280.19;;;30.81;35.92
73870;BME280;64924;42.140;24.762;2023-06-14T11:45:00;99283.09;;;30.64;36.36
73870;BME280;64924;42.140;24.762;2023-06-14T11:47:33;99277.91;;;30.36;36.43
73870;BME280;64924;42.140;24.762;2023-06-14T11:50:00;99271.16;;;30.37;36.95
73870;BME280;64924;42.140;24.762;2023-06-14T11:52:25;99257.69;;;30.22;36.65
73870;BME280;64924;42.140;24.762;2023-06-14T11:54:51;99281.97;;;30.47;36.09
73870;BME280;64924;42.140;24.762;2023-06-14T11:57:20;99275.47;;;30.26;35.98
73870;BME280;64924;42.140;24.762;2023-06-14T11:59:46;99277.47;;;30.25;36.46
73870;BME280;64924;42.140;24.762;2023-06-14T12:02:19;99194.13;;;29.97;36.79
73870;BME280;64924;42.140;24.762;2023-06-14T12:04:48;99211.88;;;30.18;36.55
73870;BME280;64924;42.140;24.762;2023-06-14T12:07:16;99277.72;;;30.41;37.11
73870;BME280;64924;42.140;24.762;2023-06-14T12:12:28;99286.28;;;29.89;37.84
73870;BME280;64924;42.140;24.762;2023-06-14T12:14:57;99285.13;;;29.90;38.61
73870;BME280;64924;42.140;24.762;2023-06-14T12:17:23;99264.91;;;29.68;39.31
73870;BME280;64924;42.140;24.762;2023-06-14T12:19:49;99262.94;;;29.68;39.31
73870;BME280;64924;42.140;24.762;2023-06-14T12:22:16;99264.59;;;29.52;38.91
73870;BME280;64924;42.140;24.762;2023-06-14T12:24:45;99259.81;;;29.26;37.80
73870;BME280;64924;42.140;24.762;2023-06-14T12:27:11;99262.75;;;29.21;38.69
73870;BME280;64924;42.140;24.762;2023-06-14T12:29:40;99254.84;;;29.06;39.73
73870;BME280;64924;42.140;24.762;2023-06-14T12:32:06;99254.28;;;28.78;40.42
73870;BME280;64924;42.140;24.762;2023-06-14T12:34:32;99243.22;;;28.65;40.41
73870;BME280;64924;42.140;24.762;2023-06-14T12:36:57;99251.16;;;28.80;40.83
73870;BME280;64924;42.140;24.762;2023-06-14T12:39:23;99194.88;;;28.64;41.23
73870;BME280;64924;42.140;24.762;2023-06-14T12:41:50;99232.63;;;28.84;39.67
73870;BME280;64924;42.140;24.762;2023-06-14T12:44:15;99215.34;;;28.82;40.01
73870;BME280;64924;42.140;24.762;2023-06-14T12:46:41;99201.22;;;28.87;40.11
73870;BME280;64924;42.140;24.762;2023-06-14T12:49:11;99228.84;;;29.14;39.76
73870;BME280;64924;42.140;24.762;2023-06-14T12:51:38;99228.19;;;29.17;39.43
73870;BME280;64924;42.140;24.762;2023-06-14T12:54:04;99193.81;;;28.91;38.74
73870;BME280;64924;42.140;24.762;2023-06-14T12:56:30;99235.25;;;28.98;39.84
73870;BME280;64924;42.140;24.762;2023-06-14T12:58:55;99224.03;;;28.80;39.26
73870;BME280;64924;42.140;24.762;2023-06-14T13:01:21;99224.41;;;28.87;39.07
73870;BME280;64924;42.140;24.762;2023-06-14T13:03:47;99185.69;;;28.81;38.12
73870;BME280;64924;42.140;24.762;2023-06-14T13:06:12;99221.63;;;28.96;37.63